Time;durP1;ratioP1;P1;durP2;ratioP2;P2;SDS_P1;SDS_P2;PMS_P1;PMS_P2;Temp;Humidity;BMP_temperature;BMP_pressure;BME280_temperature;BME280_humidity;BME280_pressure;Samples;Min_cycle;Max_cycle;Signal;HPM_P1;HPM_P2
2023/02/10 00:02:22;;;;;;;197.70;77.47;;;;;;;-5.83;78.47;102619.00;5044825;28;20126;-67
2023/02/10 00:04:48;;;;;;;191.13;77.15;;;;;;;-5.88;78.02;102614.53;5052324;28;20077;-67
2023/02/10 00:07:13;;;;;;;189.18;75.65;;;;;;;-6.12;77.84;102575.91;5049571;28;20380;-67
2023/02/10 00:09:38;;;;;;;194.27;77.93;;;;;;;-5.94;78.34;102623.19;5051774;28;20480;-68
2023/02/10 00:12:07;;;;;;;199.32;76.40;;;;;;;-6.03;78.68;102596.91;5050005;28;20127;-67
2023/02/10 00:14:32;;;;;;;187.88;74.55;;;;;;;-5.95;78.28;102613.59;5050024;28;20033;-66
2023/02/10 00:16:59;;;;;;;185.55;73.78;;;;;;;-5.96;78.30;102613.56;5045620;28;20020;-67
2023/02/10 00:19:26;;;;;;;184.85;72.03;;;;;;;-6.03;77.87;102601.28;5050822;28;20029;-67
2023/02/10 00:21:52;;;;;;;184.68;72.72;;;;;;;-6.02;78.08;102609.13;5052064;28;20092;-67
2023/02/10 00:24:18;;;;;;;186.75;74.05;;;;;;;-6.04;77.71;102615.16;5048129;28;20155;-67
2023/02/10 00:26:43;;;;;;;183.32;73.43;;;;;;;-6.07;78.36;102608.16;5046881;28;20029;-67
2023/02/10 00:29:09;;;;;;;182.40;69.22;;;;;;;-6.03;78.08;102624.78;5049214;28;20164;-68
2023/02/10 00:31:34;;;;;;;166.43;69.80;;;;;;;-6.08;78.61;102618.59;5038455;28;20029;-68
2023/02/10 00:34:00;;;;;;;174.35;72.18;;;;;;;-6.05;78.61;102623.84;5043936;28;20029;-68
2023/02/10 00:36:25;;;;;;;176.95;70.22;;;;;;;-6.09;79.33;102616.84;5049311;28;20021;-68
2023/02/10 00:38:51;;;;;;;174.15;70.03;;;;;;;-6.15;79.83;102601.97;5065550;28;20033;-67
2023/02/10 00:41:19;;;;;;;162.32;66.53;;;;;;;-6.08;80.04;102623.81;5048295;28;20021;-67
2023/02/10 00:43:45;;;;;;;162.18;66.68;;;;;;;-6.08;79.77;102629.91;5073251;28;20033;-67
2023/02/10 00:46:15;;;;;;;157.15;65.50;;;;;;;-6.14;79.67;102624.59;5048057;28;20036;-67
2023/02/10 00:48:41;;;;;;;166.30;67.00;;;;;;;-6.25;80.48;102604.38;5045604;28;20021;-68
2023/02/10 00:51:07;;;;;;;159.40;64.90;;;;;;;-6.15;80.74;102632.41;5049341;28;20183;-68
2023/02/10 00:53:33;;;;;;;152.43;66.78;;;;;;;-6.20;80.28;102632.31;5040954;28;20025;-68
2023/02/10 00:55:58;;;;;;;167.70;65.35;;;;;;;-6.24;79.92;102621.78;5051476;28;20655;-67
2023/02/10 00:58:24;;;;;;;163.60;65.32;;;;;;;-6.23;80.37;102624.44;5038743;28;20124;-68
2023/02/10 01:00:50;;;;;;;170.60;63.92;;;;;;;-6.31;80.16;102617.31;5046390;28;20388;-68
2023/02/10 01:03:15;;;;;;;160.90;63.25;;;;;;;-6.28;80.64;102617.38;5043092;28;20030;-68
2023/02/10 01:05:41;;;;;;;163.13;66.40;;;;;;;-6.39;80.58;102606.75;5049317;28;20028;-67
2023/02/10 01:08:07;;;;;;;182.40;73.75;;;;;;;-6.29;80.61;102623.47;5035870;28;20051;-67
2023/02/10 01:10:34;;;;;;;190.80;75.45;;;;;;;-6.37;80.13;102610.28;5049569;28;20037;-67
2023/02/10 01:13:01;;;;;;;184.75;74.75;;;;;;;-6.39;79.37;102619.81;5046690;28;20095;-67
2023/02/10 01:15:26;;;;;;;179.88;76.60;;;;;;;-6.40;79.52;102614.56;5043406;28;20547;-67
2023/02/10 01:17:52;;;;;;;198.02;78.72;;;;;;;-6.46;79.28;102602.28;5043385;28;20039;-67
2023/02/10 01:20:18;;;;;;;190.13;77.88;;;;;;;-6.45;79.46;102617.06;5041653;28;20435;-68
2023/02/10 01:22:44;;;;;;;186.13;74.07;;;;;;;-6.54;79.35;102600.41;5041100;28;20021;-68
2023/02/10 01:25:09;;;;;;;200.45;81.25;;;;;;;-6.52;79.45;102599.56;5044722;28;20032;-68
2023/02/10 01:27:34;;;;;;;184.05;76.13;;;;;;;-6.52;79.72;102602.16;5041057;28;20040;-68
2023/02/10 01:30:01;;;;;;;202.98;77.63;;;;;;;-6.53;79.22;102599.53;5046995;28;20043;-68
2023/02/10 01:32:26;;;;;;;195.55;80.10;;;;;;;-6.56;79.18;102602.97;5044477;28;20028;-68
2023/02/10 01:34:52;;;;;;;202.45;84.00;;;;;;;-6.53;79.57;102609.97;5036032;28;20037;-68
2023/02/10 01:37:17;;;;;;;206.05;81.80;;;;;;;-6.56;79.56;102604.69;5049102;28;20029;-68
2023/02/10 01:39:43;;;;;;;201.80;78.75;;;;;;;-6.55;79.43;102609.94;5042783;28;20480;-68
2023/02/10 01:42:15;;;;;;;198.88;77.82;;;;;;;-6.59;79.69;102599.41;5047409;28;20464;-67
2023/02/10 01:44:40;;;;;;;202.10;77.63;;;;;;;-6.57;79.54;102605.56;5043478;28;20041;-68
2023/02/10 01:47:07;;;;;;;208.93;79.15;;;;;;;-6.59;79.10;102608.13;5040992;28;20033;-67
2023/02/10 01:49:39;;;;;;;204.07;78.97;;;;;;;-6.62;79.03;102608.06;5037657;28;20563;-68
2023/02/10 01:52:15;;;;;;;202.93;81.95;;;;;;;-6.60;79.67;102606.38;5048781;28;20503;-67
2023/02/10 01:55:02;;;;;;;193.35;77.00;;;;;;;-6.67;80.38;102595.81;5044004;28;20150;-67
2023/02/10 01:57:29;;;;;;;178.20;73.20;;;;;;;-6.58;80.76;102611.63;5043832;28;20032;-67
2023/02/10 01:59:55;;;;;;;200.90;77.55;;;;;;;-6.66;80.19;102598.44;5046176;28;20059;-67
2023/02/10 02:02:21;;;;;;;212.88;80.57;;;;;;;-6.76;80.23;102577.38;5046136;28;20486;-67
2023/02/10 02:04:50;;;;;;;193.82;76.85;;;;;;;-6.67;79.51;102604.53;5039128;28;20123;-67
2023/02/10 02:07:21;;;;;;;212.48;78.80;;;;;;;-6.70;80.10;102603.56;5046480;28;20020;-67
2023/02/10 02:09:47;;;;;;;195.65;76.85;;;;;;;-6.77;79.41;102599.09;5073623;28;20041;-68
2023/02/10 02:12:13;;;;;;;182.40;72.47;;;;;;;-6.73;79.33;102606.13;5044024;28;20442;-66
2023/02/10 02:15:25;;;;;;;203.15;79.45;;;;;;;-6.75;80.01;102595.66;5040655;28;20056;-67
2023/02/10 02:17:54;;;;;;;201.65;76.15;;;;;;;-6.86;80.09;102580.66;5046438;28;20041;-67
2023/02/10 02:20:42;;;;;;;193.32;74.65;;;;;;;-6.86;79.61;102589.38;5039794;28;20107;-68
2023/02/10 02:23:32;;;;;;;195.23;77.10;;;;;;;-6.82;79.07;102595.50;5049139;28;20516;-68
2023/02/10 02:26:09;;;;;;;201.10;74.57;;;;;;;-6.86;79.26;102586.78;5043663;28;20024;-68
2023/02/10 02:28:57;;;;;;;200.38;76.60;;;;;;;-6.87;78.28;102595.41;5037975;28;20660;-67
2023/02/10 02:31:34;;;;;;;196.10;74.25;;;;;;;-6.94;79.62;102585.72;5047368;28;20033;-67
2023/02/10 02:34:34;;;;;;;195.15;73.15;;;;;;;-6.87;79.30;102602.38;5056017;28;20464;-67
2023/02/10 02:37:12;;;;;;;193.93;73.18;;;;;;;-6.87;80.10;102602.38;5045366;28;20032;-67
2023/02/10 02:39:37;;;;;;;193.10;77.53;;;;;;;-6.88;79.86;102601.50;5045337;28;20044;-67
2023/02/10 02:42:20;;;;;;;204.75;80.70;;;;;;;-6.88;78.87;102603.22;5062020;28;20029;-67
2023/02/10 02:44:50;;;;;;;201.32;76.80;;;;;;;-6.89;78.92;102604.06;5046600;28;20032;-67
2023/02/10 02:47:37;;;;;;;200.93;80.70;;;;;;;-6.94;79.26;102603.13;5040314;28;20029;-68
2023/02/10 02:50:17;;;;;;;201.40;74.78;;;;;;;-6.98;79.81;102596.97;5035949;28;20055;-68
2023/02/10 02:52:51;;;;;;;199.00;77.80;;;;;;;-7.01;79.74;102601.22;5040992;28;20098;-67
2023/02/10 02:55:28;;;;;;;184.13;73.18;;;;;;;-7.01;79.40;102607.31;5045333;28;20033;-68
2023/02/10 02:58:00;;;;;;;192.65;77.10;;;;;;;-7.07;79.28;102595.91;5044499;28;20084;-67
2023/02/10 03:00:29;;;;;;;194.52;74.63;;;;;;;-7.03;78.86;102600.31;5043893;28;20033;-67
2023/02/10 03:02:56;;;;;;;203.85;77.65;;;;;;;-7.20;80.02;102574.81;5071432;28;20532;-67
2023/02/10 03:05:27;;;;;;;193.23;72.60;;;;;;;-7.08;79.12;102604.56;5037071;28;20052;-67
2023/02/10 03:07:53;;;;;;;204.45;76.45;;;;;;;-7.13;79.54;102590.56;5040464;28;20040;-67
2023/02/10 03:10:18;;;;;;;198.30;75.10;;;;;;;-7.19;79.84;102580.91;5043766;28;20037;-67
2023/02/10 03:12:44;;;;;;;208.10;80.45;;;;;;;-7.16;80.06;102599.22;5043332;28;20061;-67
2023/02/10 03:15:11;;;;;;;206.73;77.47;;;;;;;-7.18;79.94;102598.28;5045411;28;20037;-67
2023/02/10 03:17:36;;;;;;;202.57;77.03;;;;;;;-7.21;79.45;102603.44;5029175;28;20040;-67
2023/02/10 03:20:02;;;;;;;194.50;74.47;;;;;;;-7.22;79.86;102602.56;5044294;28;20025;-67
2023/02/10 03:22:28;;;;;;;193.15;72.43;;;;;;;-7.23;78.66;102603.41;5050725;28;20033;-68
2023/02/10 03:24:53;;;;;;;195.57;73.82;;;;;;;-7.30;79.52;102583.28;5043895;28;20040;-67
2023/02/10 03:27:18;;;;;;;187.73;73.00;;;;;;;-7.23;78.92;102598.19;5044708;28;20032;-67
2023/02/10 03:29:44;;;;;;;194.88;72.15;;;;;;;-7.34;79.13;102578.88;5042406;28;20025;-67
2023/02/10 03:32:09;;;;;;;178.50;69.00;;;;;;;-7.24;79.10;102596.44;5040388;28;20048;-67
2023/02/10 03:34:35;;;;;;;172.80;68.65;;;;;;;-7.24;78.94;102599.06;5045631;28;20107;-68
2023/02/10 03:37:00;;;;;;;171.45;69.68;;;;;;;-7.23;79.03;102598.19;5048460;28;20025;-68
2023/02/10 03:39:26;;;;;;;184.68;66.72;;;;;;;-7.25;78.72;102599.03;5044980;28;20059;-67
2023/02/10 03:41:53;;;;;;;167.85;67.05;;;;;;;-7.26;79.34;102600.75;5057165;28;20168;-67
2023/02/10 03:44:18;;;;;;;167.75;64.57;;;;;;;-7.26;79.34;102594.63;5040370;28;20048;-67
2023/02/10 03:46:44;;;;;;;151.90;62.22;;;;;;;-7.27;79.09;102580.75;5031654;28;20033;-67
2023/02/10 03:49:09;;;;;;;163.48;65.50;;;;;;;-7.22;78.84;102596.47;5033583;28;20378;-68
2023/02/10 03:51:35;;;;;;;163.02;64.53;;;;;;;-7.21;79.80;102593.91;5042487;28;20412;-67
2023/02/10 03:54:00;;;;;;;160.38;65.07;;;;;;;-7.25;79.82;102594.66;5045452;28;20045;-68
2023/02/10 03:56:25;;;;;;;158.68;62.95;;;;;;;-7.25;80.04;102591.22;5040655;28;20017;-67
2023/02/10 03:58:51;;;;;;;163.82;62.42;;;;;;;-7.27;80.36;102588.56;5045168;28;20082;-67
2023/02/10 04:01:17;;;;;;;159.68;62.80;;;;;;;-7.21;79.55;102599.13;5037840;28;20650;-68
2023/02/10 04:03:44;;;;;;;169.90;63.55;;;;;;;-7.23;79.84;102599.91;5036905;28;20025;-68
2023/02/10 04:06:10;;;;;;;153.00;59.03;;;;;;;-7.25;78.88;102586.84;5040406;28;21566;-67
2023/02/10 04:08:35;;;;;;;142.93;58.88;;;;;;;-7.33;79.71;102572.81;5045504;28;20567;-68
2023/02/10 04:11:01;;;;;;;147.93;57.45;;;;;;;-7.30;79.86;102575.47;5041562;28;20036;-68
2023/02/10 04:13:26;;;;;;;141.35;58.28;;;;;;;-7.23;80.54;102598.19;5046170;28;20033;-67
2023/02/10 04:16:09;;;;;;;141.32;58.50;;;;;;;-7.25;79.83;102599.88;5038508;28;20090;-68
2023/02/10 04:18:35;;;;;;;148.82;59.10;;;;;;;-7.34;79.82;102584.09;5046513;28;20753;-68
2023/02/10 04:21:01;;;;;;;133.60;54.33;;;;;;;-7.32;80.69;102587.56;5040074;28;20033;-68
2023/02/10 04:23:28;;;;;;;134.20;55.00;;;;;;;-7.26;80.23;102599.84;5033758;28;20049;-67
2023/02/10 04:25:54;;;;;;;124.65;51.28;;;;;;;-7.27;79.00;102603.31;5030755;28;20037;-68
2023/02/10 04:28:19;;;;;;;131.52;50.40;;;;;;;-7.33;79.12;102588.44;5056563;28;20041;-68
2023/02/10 04:30:45;;;;;;;118.75;50.25;;;;;;;-7.36;79.29;102575.34;5039575;28;20033;-68
2023/02/10 04:33:10;;;;;;;124.85;50.10;;;;;;;-7.29;79.71;102589.34;5037902;28;20031;-68
2023/02/10 04:35:36;;;;;;;125.00;51.50;;;;;;;-7.32;78.41;102590.19;5037998;28;20120;-68
2023/02/10 04:38:03;;;;;;;123.43;49.22;;;;;;;-7.27;79.25;102590.28;5043128;28;20037;-67
2023/02/10 04:40:29;;;;;;;116.43;47.83;;;;;;;-7.35;79.56;102584.91;5046046;28;20037;-68
2023/02/10 04:42:54;;;;;;;113.95;47.75;;;;;;;-7.26;79.52;102595.53;5040407;28;20033;-67
2023/02/10 04:45:20;;;;;;;124.30;50.15;;;;;;;-7.45;79.56;102572.53;5042588;28;20654;-68
2023/02/10 04:47:45;;;;;;;122.00;50.72;;;;;;;-7.29;79.76;102598.06;5045886;28;20450;-68
2023/02/10 04:50:11;;;;;;;124.78;49.13;;;;;;;-7.32;79.71;102600.63;5045237;28;20025;-67
2023/02/10 04:52:36;;;;;;;109.30;48.10;;;;;;;-7.49;79.78;102562.00;5042352;28;20064;-68
2023/02/10 04:55:02;;;;;;;125.68;47.17;;;;;;;-7.44;79.07;102579.53;5049259;28;20041;-67
2023/02/10 04:57:27;;;;;;;107.97;43.50;;;;;;;-7.41;79.55;102590.00;5048963;28;20061;-68
2023/02/10 04:59:52;;;;;;;105.60;46.38;;;;;;;-7.40;79.51;102581.34;5039995;28;20017;-68
2023/02/10 05:02:18;;;;;;;104.90;44.70;;;;;;;-7.38;80.87;102577.03;5038672;28;20043;-68
2023/02/10 05:04:43;;;;;;;101.47;44.00;;;;;;;-7.31;81.43;102578.94;5047377;28;20035;-68
2023/02/10 05:07:09;;;;;;;110.60;47.55;;;;;;;-7.23;82.55;102574.75;5037613;28;20029;-68
2023/02/10 05:09:34;;;;;;;109.53;45.70;;;;;;;-7.17;83.98;102577.47;5045564;28;20032;-68
2023/02/10 05:12:00;;;;;;;117.22;48.00;;;;;;;-7.09;84.85;102577.63;5048113;28;20476;-67
2023/02/10 05:14:25;;;;;;;116.07;48.05;;;;;;;-7.02;85.62;102581.22;5047655;28;20045;-68
2023/02/10 05:16:51;;;;;;;118.05;50.40;;;;;;;-6.92;87.27;102591.88;5038119;28;20029;-68
2023/02/10 05:19:16;;;;;;;116.72;49.85;;;;;;;-6.98;87.48;102564.78;5040919;28;20460;-68
2023/02/10 05:21:42;;;;;;;112.40;48.40;;;;;;;-6.78;87.58;102592.13;5046103;28;20028;-68
2023/02/10 05:24:07;;;;;;;110.60;48.63;;;;;;;-6.68;88.29;102604.50;5048591;28;20035;-68
2023/02/10 05:26:32;;;;;;;113.65;50.45;;;;;;;-6.72;88.56;102593.09;5048770;28;20039;-68
2023/02/10 05:28:58;;;;;;;116.78;50.60;;;;;;;-6.67;88.35;102599.31;5046334;28;20114;-68
2023/02/10 05:31:23;;;;;;;109.45;48.88;;;;;;;-6.67;87.07;102591.47;5039926;28;20056;-67
2023/02/10 05:33:49;;;;;;;108.63;48.65;;;;;;;-6.69;86.07;102595.78;5034911;28;20743;-68
2023/02/10 05:36:14;;;;;;;118.72;49.33;;;;;;;-6.69;86.05;102593.16;5043689;28;20120;-68
2023/02/10 05:39:22;;;;;;;112.75;47.47;;;;;;;-6.66;85.56;102600.16;5036065;28;20043;-68
2023/02/10 05:41:25;;;;;;;113.50;46.40;;;;;;;-6.67;85.78;102593.19;5040152;28;20037;-67
2023/02/10 05:43:50;;;;;;;115.55;47.38;;;;;;;-6.76;84.81;102591.31;5062375;28;20040;-67
2023/02/10 05:46:16;;;;;;;102.97;45.83;;;;;;;-6.75;83.38;102603.50;5042435;28;20069;-67
2023/02/10 05:48:41;;;;;;;119.57;47.30;;;;;;;-6.75;83.11;102608.69;5046814;28;20025;-67
2023/02/10 05:51:07;;;;;;;122.25;51.03;;;;;;;-6.86;83.56;102597.19;5046571;28;20408;-67
2023/02/10 05:53:32;;;;;;;124.72;50.28;;;;;;;-6.86;82.77;102599.81;5042557;28;20037;-67
2023/02/10 05:55:58;;;;;;;117.68;48.17;;;;;;;-6.90;82.97;102600.63;5049233;28;20032;-68
2023/02/10 05:58:23;;;;;;;114.20;47.05;;;;;;;-6.98;82.04;102594.34;5042268;28;20064;-67
2023/02/10 06:00:48;;;;;;;128.52;50.15;;;;;;;-7.02;81.62;102599.47;5040864;28;20048;-68
2023/02/10 06:03:14;;;;;;;116.43;49.00;;;;;;;-7.15;81.05;102595.75;5044246;28;20594;-67
2023/02/10 06:05:39;;;;;;;122.88;49.42;;;;;;;-7.21;81.07;102593.91;5042079;28;20036;-67
2023/02/10 06:08:05;;;;;;;119.05;48.00;;;;;;;-7.15;81.29;102614.84;5038323;28;20025;-67
2023/02/10 06:10:30;;;;;;;133.55;50.67;;;;;;;-7.12;81.26;102614.06;5038810;28;20086;-67
2023/02/10 06:12:56;;;;;;;134.13;47.80;;;;;;;-7.10;81.25;102634.97;5035366;28;20029;-67
2023/02/10 06:15:21;;;;;;;118.20;48.08;;;;;;;-7.21;81.63;102626.91;5036555;28;20039;-67
2023/02/10 06:17:47;;;;;;;148.15;53.92;;;;;;;-7.13;81.51;102654.88;5043549;28;20031;-67
2023/02/10 06:20:12;;;;;;;132.02;52.38;;;;;;;-7.15;81.79;102647.88;5045897;28;20071;-68
2023/02/10 06:22:38;;;;;;;127.05;49.80;;;;;;;-7.16;81.86;102649.59;5041439;28;20024;-67
2023/02/10 06:25:03;;;;;;;128.68;50.95;;;;;;;-7.13;82.60;102653.13;5045259;28;20120;-67
2023/02/10 06:27:29;;;;;;;136.90;52.08;;;;;;;-7.15;82.86;102653.09;5050394;28;20033;-67
2023/02/10 06:29:54;;;;;;;148.43;55.15;;;;;;;-7.20;82.99;102655.63;5048938;28;20037;-67
2023/02/10 06:32:19;;;;;;;141.55;58.17;;;;;;;-7.18;82.64;102661.75;5044593;28;20033;-67
2023/02/10 06:34:45;;;;;;;139.90;54.25;;;;;;;-7.09;81.92;102668.88;5040153;28;20055;-68
2023/02/10 06:37:11;;;;;;;150.63;55.67;;;;;;;-7.07;82.26;102671.53;5034614;28;20063;-67
2023/02/10 06:39:36;;;;;;;145.52;58.72;;;;;;;-7.05;83.41;102675.91;5040198;28;20115;-66
2023/02/10 06:42:02;;;;;;;150.85;58.08;;;;;;;-7.00;82.85;102687.28;5044450;28;20036;-66
2023/02/10 06:44:27;;;;;;;145.93;59.28;;;;;;;-6.99;83.79;102685.59;5044445;28;20041;-67
2023/02/10 06:46:52;;;;;;;160.75;65.63;;;;;;;-6.95;83.95;102688.28;5044459;28;20139;-67
2023/02/10 06:49:18;;;;;;;160.70;67.70;;;;;;;-6.86;84.83;102706.75;5044682;28;20029;-67
2023/02/10 06:51:44;;;;;;;179.80;72.55;;;;;;;-6.82;85.57;102705.06;5044967;28;20037;-67
2023/02/10 06:54:09;;;;;;;187.23;73.75;;;;;;;-6.70;85.99;102708.81;5047332;28;20056;-67
2023/02/10 06:56:34;;;;;;;198.57;79.80;;;;;;;-6.64;86.81;102715.88;5045133;28;20033;-67
2023/02/10 06:59:00;;;;;;;198.45;78.70;;;;;;;-6.57;86.90;102712.53;5044365;28;20040;-68
2023/02/10 07:01:25;;;;;;;183.18;78.35;;;;;;;-6.63;87.64;102694.16;5049635;28;20031;-68
2023/02/10 07:03:51;;;;;;;182.95;74.82;;;;;;;-6.49;87.91;102711.84;5046888;28;20032;-68
2023/02/10 07:06:18;;;;;;;200.88;78.22;;;;;;;-6.47;87.89;102715.38;5046290;28;20586;-67
2023/02/10 07:08:44;;;;;;;185.45;77.22;;;;;;;-6.34;87.38;102724.28;5044083;28;20021;-68
2023/02/10 07:11:09;;;;;;;183.30;75.25;;;;;;;-6.37;87.62;102706.84;5033969;28;20029;-68
2023/02/10 07:13:34;;;;;;;189.65;74.78;;;;;;;-6.21;87.55;102716.72;5031914;28;20503;-67
2023/02/10 07:16:01;;;;;;;177.15;74.57;;;;;;;-6.20;87.54;102697.59;5040204;28;20060;-68
2023/02/10 07:18:29;;;;;;;178.57;74.20;;;;;;;-6.14;87.66;102702.03;5045341;28;20033;-67
2023/02/10 07:20:55;;;;;;;184.52;75.35;;;;;;;-6.10;88.02;102693.44;5046534;28;20481;-68
2023/02/10 07:23:20;;;;;;;185.38;73.47;;;;;;;-5.89;88.00;102710.34;5048099;28;20028;-67
2023/02/10 07:25:46;;;;;;;185.05;75.38;;;;;;;-5.79;87.90;102712.22;5047303;28;20480;-67
2023/02/10 07:28:11;;;;;;;181.48;73.07;;;;;;;-5.66;88.29;102722.03;5046350;28;20029;-67
2023/02/10 07:30:37;;;;;;;170.50;72.43;;;;;;;-5.58;87.95;102715.16;5050094;28;20078;-67
2023/02/10 07:33:03;;;;;;;164.15;73.05;;;;;;;-5.48;88.13;102708.38;5049486;28;20041;-67
2023/02/10 07:35:28;;;;;;;166.52;71.20;;;;;;;-5.38;87.85;102700.66;5044879;28;20021;-67
2023/02/10 07:37:54;;;;;;;173.85;74.50;;;;;;;-5.20;88.63;102705.28;5045469;28;20029;-67
2023/02/10 07:40:19;;;;;;;168.70;74.32;;;;;;;-5.16;88.67;102691.41;5045680;28;20091;-67
2023/02/10 07:42:44;;;;;;;167.82;73.50;;;;;;;-4.95;88.93;102699.53;5047471;28;20380;-67
2023/02/10 07:45:10;;;;;;;159.02;69.95;;;;;;;-4.81;88.87;102711.03;5049429;28;20032;-67
2023/02/10 07:47:36;;;;;;;145.32;62.70;;;;;;;-4.68;89.58;102705.09;5045461;28;20044;-67
2023/02/10 07:50:02;;;;;;;121.32;52.75;;;;;;;-4.48;89.80;102702.72;5049049;28;20045;-67
2023/02/10 07:52:27;;;;;;;107.20;47.17;;;;;;;-4.33;90.01;102701.16;5044286;28;20076;-67
2023/02/10 07:54:53;;;;;;;87.63;40.90;;;;;;;-4.02;89.79;102711.09;5063313;28;20068;-68
2023/02/10 07:57:18;;;;;;;82.78;39.60;;;;;;;-3.80;89.97;102709.53;5047633;28;20029;-67
2023/02/10 07:59:44;;;;;;;89.45;41.88;;;;;;;-3.70;89.95;102696.53;5047506;28;20025;-68
2023/02/10 08:02:10;;;;;;;90.97;42.92;;;;;;;-3.53;89.30;102701.88;5048489;28;20509;-68
2023/02/10 08:04:35;;;;;;;94.93;43.50;;;;;;;-3.36;88.86;102700.25;5053349;28;20090;-67
2023/02/10 08:07:01;;;;;;;90.93;44.65;;;;;;;-3.18;88.69;102705.63;5052282;28;20060;-67
2023/02/10 08:09:26;;;;;;;107.70;47.53;;;;;;;-3.03;87.38;102713.59;5045369;28;20086;-67
2023/02/10 08:11:52;;;;;;;109.10;49.80;;;;;;;-2.88;85.87;102718.91;5044877;28;20037;-67
2023/02/10 08:14:17;;;;;;;122.10;55.05;;;;;;;-2.68;84.81;102726.03;5046430;28;20048;-67
2023/02/10 08:16:43;;;;;;;108.40;51.20;;;;;;;-2.59;84.20;102720.81;5042550;28;20476;-67
2023/02/10 08:19:08;;;;;;;111.53;52.28;;;;;;;-2.49;83.66;102709.47;5050417;28;20036;-68
2023/02/10 08:21:33;;;;;;;105.53;51.78;;;;;;;-2.34;83.08;102716.50;5045399;28;20026;-67
2023/02/10 08:23:59;;;;;;;110.78;51.80;;;;;;;-2.24;83.15;102718.28;5043964;28;20387;-68
2023/02/10 08:26:25;;;;;;;119.65;54.63;;;;;;;-2.14;82.13;102727.94;5050864;28;20032;-68
2023/02/10 08:28:51;;;;;;;116.78;52.08;;;;;;;-2.02;81.49;102716.59;5052132;28;20032;-68
2023/02/10 08:31:17;;;;;;;110.47;50.78;;;;;;;-1.73;80.43;102714.84;5048545;28;20058;-67
2023/02/10 08:33:43;;;;;;;107.65;52.72;;;;;;;-1.66;80.26;102708.72;5039792;28;20099;-67
2023/02/10 08:36:11;;;;;;;98.13;50.90;;;;;;;-1.58;80.59;102710.47;5046034;28;20035;-68
2023/02/10 08:38:38;;;;;;;97.38;47.58;;;;;;;-1.45;80.47;102706.09;5051379;28;20058;-69
2023/02/10 08:41:04;;;;;;;92.65;42.58;;;;;;;-1.33;79.97;102685.91;5047189;28;20072;-68
2023/02/10 08:43:30;;;;;;;79.35;39.90;;;;;;;-1.24;79.33;102687.63;5048854;28;20053;-68
2023/02/10 08:45:58;;;;;;;69.38;35.47;;;;;;;-1.15;78.73;102677.09;5051159;28;20084;-68
2023/02/10 08:48:23;;;;;;;74.88;36.70;;;;;;;-1.08;77.98;102669.16;5052970;28;20029;-67
2023/02/10 08:50:49;;;;;;;76.00;37.55;;;;;;;-0.99;77.09;102673.53;5050711;28;20352;-68
2023/02/10 08:53:15;;;;;;;66.20;34.60;;;;;;;-0.94;77.14;102664.72;5052292;28;20044;-68
2023/02/10 08:55:40;;;;;;;71.72;35.55;;;;;;;-0.77;76.73;102668.16;5049883;28;20037;-68
2023/02/10 08:58:06;;;;;;;69.20;34.05;;;;;;;-0.70;75.92;102669.03;5046607;28;20037;-68
2023/02/10 09:00:32;;;;;;;69.20;32.70;;;;;;;-0.65;75.64;102667.22;5046828;28;20532;-68
2023/02/10 09:02:57;;;;;;;66.97;33.15;;;;;;;-0.51;74.68;102670.69;5041098;28;20029;-67
2023/02/10 09:05:23;;;;;;;67.32;31.38;;;;;;;-0.32;72.66;102675.84;5050113;28;20065;-68
2023/02/10 09:07:48;;;;;;;63.10;30.08;;;;;;;-0.17;71.39;102686.31;5039654;28;20041;-67
2023/02/10 09:10:15;;;;;;;64.53;30.55;;;;;;;-0.11;70.97;102659.03;5038720;28;20032;-68
2023/02/10 09:12:41;;;;;;;55.03;28.17;;;;;;;0.13;69.50;102671.16;5044636;28;20064;-68
2023/02/10 09:15:08;;;;;;;56.67;28.65;;;;;;;0.09;69.23;102666.81;5047152;28;20033;-68
2023/02/10 09:17:34;;;;;;;65.30;32.17;;;;;;;0.28;68.79;102682.47;5044255;28;20116;-68
2023/02/10 09:19:59;;;;;;;59.53;29.73;;;;;;;0.31;68.36;102666.59;5032514;28;20148;-68
2023/02/10 09:22:25;;;;;;;49.38;25.92;;;;;;;0.51;67.11;102688.41;5043291;28;20025;-68
2023/02/10 09:24:52;;;;;;;52.33;25.65;;;;;;;0.43;67.20;102665.63;5052357;28;20035;-68
2023/02/10 09:27:18;;;;;;;52.10;26.15;;;;;;;0.55;67.79;102682.22;5044683;28;20037;-68
2023/02/10 09:29:44;;;;;;;49.08;24.25;;;;;;;0.68;67.52;102685.63;5047542;28;20041;-68
2023/02/10 09:32:10;;;;;;;44.50;24.00;;;;;;;0.73;66.71;102689.09;5050986;28;20036;-68
2023/02/10 09:34:35;;;;;;;45.75;24.77;;;;;;;0.78;66.60;102685.53;5042601;28;20033;-67
2023/02/10 09:37:02;;;;;;;48.45;23.83;;;;;;;0.96;65.00;102685.31;5049656;28;20028;-67
2023/02/10 09:39:30;;;;;;;44.20;23.52;;;;;;;0.98;64.90;102677.38;5047446;28;20128;-67
2023/02/10 09:42:13;;;;;;;43.10;23.02;;;;;;;1.03;64.96;102684.34;5045366;28;20029;-67
2023/02/10 09:44:51;;;;;;;33.42;18.02;;;;;;;1.07;64.72;102683.47;5050781;28;20369;-67
2023/02/10 09:47:26;;;;;;;42.58;23.08;;;;;;;1.22;64.46;102688.53;5056067;28;20120;-67
2023/02/10 09:50:19;;;;;;;40.40;22.63;;;;;;;1.41;62.66;102698.00;5052557;28;20071;-68
2023/02/10 09:53:02;;;;;;;42.53;23.45;;;;;;;1.50;62.01;102689.97;5041353;28;20068;-67
2023/02/10 09:55:45;;;;;;;42.40;21.90;;;;;;;1.60;61.06;102681.00;5040345;28;20442;-68
2023/02/10 09:58:17;;;;;;;41.38;21.48;;;;;;;1.79;61.40;102681.63;5043670;28;20665;-67
2023/02/10 10:00:44;;;;;;;44.85;23.40;;;;;;;1.79;61.60;102666.63;5050828;28;20543;-67
2023/02/10 10:03:18;;;;;;;41.78;20.88;;;;;;;2.00;60.39;102676.03;5049085;28;20082;-67
2023/02/10 10:05:43;;;;;;;36.63;21.17;;;;;;;2.32;59.10;102681.66;5082863;28;20021;-67
2023/02/10 10:08:24;;;;;;;36.75;20.70;;;;;;;2.46;58.81;102686.75;5050709;28;20025;-67
2023/02/10 10:10:51;;;;;;;42.40;21.30;;;;;;;2.74;58.15;102682.72;5047595;28;20029;-67
2023/02/10 10:13:28;;;;;;;39.90;21.05;;;;;;;3.22;56.07;102681.78;5058190;28;20038;-68
2023/02/10 10:16:16;;;;;;;38.15;19.35;;;;;;;3.58;55.73;102675.72;5060013;28;20045;-68
2023/02/10 10:19:10;;;;;;;35.55;19.50;;;;;;;4.17;53.25;102683.19;5036722;28;20064;-68
2023/02/10 10:21:38;;;;;;;41.38;20.30;;;;;;;4.16;53.28;102679.66;5030558;28;20039;-67
2023/02/10 10:24:11;;;;;;;34.55;18.15;;;;;;;4.05;53.04;102662.22;5041663;28;20507;-68
2023/02/10 10:26:49;;;;;;;33.65;19.17;;;;;;;4.03;53.03;102667.56;5048000;28;20125;-68
2023/02/10 10:29:28;;;;;;;33.85;19.65;;;;;;;3.85;53.35;102660.06;5047517;28;20505;-68
2023/02/10 10:32:24;;;;;;;34.63;20.63;;;;;;;3.69;53.51;102648.03;5048197;28;20129;-68
2023/02/10 10:34:53;;;;;;;36.90;20.50;;;;;;;3.60;54.13;102647.34;5048498;28;20032;-67
2023/02/10 10:37:22;;;;;;;35.83;19.05;;;;;;;3.63;53.87;102656.13;5048923;28;20040;-67
2023/02/10 10:40:05;;;;;;;42.85;23.08;;;;;;;3.63;53.68;102653.47;5050229;28;20024;-68
2023/02/10 10:42:41;;;;;;;39.70;20.95;;;;;;;3.83;53.33;102655.66;5049458;28;20043;-68
2023/02/10 10:45:22;;;;;;;34.63;19.25;;;;;;;3.78;53.12;102652.25;5049548;28;20041;-67
2023/02/10 10:47:54;;;;;;;34.05;18.83;;;;;;;3.97;51.30;102656.25;5049266;28;20044;-68
2023/02/10 10:50:22;;;;;;;38.97;19.83;;;;;;;3.92;50.98;102637.75;5049893;28;20494;-67
2023/02/10 10:52:52;;;;;;;32.47;18.15;;;;;;;4.00;50.88;102634.94;5049747;28;20072;-68
2023/02/10 10:55:34;;;;;;;37.30;17.63;;;;;;;3.89;50.75;102637.81;5032812;28;20196;-67
2023/02/10 10:58:03;;;;;;;27.92;15.70;;;;;;;3.76;51.23;102638.13;5050042;28;20476;-67
2023/02/10 11:00:31;;;;;;;31.35;16.67;;;;;;;3.91;50.65;102645.75;5050276;28;20086;-67
2023/02/10 11:03:00;;;;;;;30.20;16.13;;;;;;;3.75;51.23;102634.63;5050405;28;20116;-68
2023/02/10 11:05:29;;;;;;;26.17;15.48;;;;;;;4.07;49.07;102642.69;5047106;28;20543;-68
2023/02/10 11:07:57;;;;;;;28.15;15.25;;;;;;;3.97;49.36;102638.50;5043013;28;20028;-68
2023/02/10 11:10:50;;;;;;;26.90;15.70;;;;;;;4.03;49.38;102635.72;5045187;28;20519;-68